Bright Pegasus — 3FJQ4 — position and weather

sailwx.info

Track history (hours):
 
Tides and Currents Weather Stations Pressure Air Temp Water Temp Dewpoint Dewpoint Depression Visibility Wind Speed Wind Dir Waves Ship Positions

Bright Pegasus

Last reported at 2018-May-30 02:55 UTC. Time now 2018-Jun-25 11:57 UTC.
Position S 34°26' E 017°40'.
Warning: this ship's position is 26 days out of date.

Length 229 m; draft 14.5 m.

Type: Ship. MMSI: 352971000.

Date/timePositionNaut miles runAvg speedWind from/ knotsBaromVisibWave heightAir tempDewpointWater temp
2018-May-30 02:55S 34°26' E 017°40'4 9.3
2018-May-30 02:30S 34°27' E 017°44'6 9.3
2018-May-30 01:49S 34°28' E 017°52'3 9.2
2018-May-30 01:29S 34°29' E 017°56'4 9.4
2018-May-30 01:00S 34°30' E 018°01'6 9.5
2018-May-30 00:24S 34°32' E 018°07'4 9.1
2018-May-29 23:58S 34°33' E 018°12'4 9.4
2018-May-29 23:30S 34°34' E 018°17'5 9.6
2018-May-29 23:00S 34°36' E 018°23'5 9.8
2018-May-29 22:30S 34°38' E 018°28'510.0
2018-May-29 21:58S 34°39' E 018°34'5 9.9
2018-May-29 21:28S 34°41' E 018°40'1010.2
2018-May-29 20:27S 34°43' E 018°52'  
Track history (hours):
 
Tides and Currents Weather Stations Pressure Air Temp Water Temp Dewpoint Dewpoint Depression Visibility Wind Speed Wind Dir Waves Ship Positions

Bright Pegasus

Last reported at 2018-May-30 02:55 UTC. Time now 2018-Jun-25 11:57 UTC.
Position S 34°26' E 017°40'.
Warning: this ship's position is 26 days out of date.

Length 229 m; draft 14.5 m.

Type: Ship. MMSI: 352971000.

Date/timePositionNaut miles runAvg speedWind from/ knotsBaromVisibWave heightAir tempDewpointWater temp
2018-May-30 02:55S 34°26' E 017°40'4 9.3
2018-May-30 02:30S 34°27' E 017°44'6 9.3
2018-May-30 01:49S 34°28' E 017°52'3 9.2
2018-May-30 01:29S 34°29' E 017°56'4 9.4
2018-May-30 01:00S 34°30' E 018°01'6 9.5
2018-May-30 00:24S 34°32' E 018°07'4 9.1
2018-May-29 23:58S 34°33' E 018°12'4 9.4
2018-May-29 23:30S 34°34' E 018°17'5 9.6
2018-May-29 23:00S 34°36' E 018°23'5 9.8
2018-May-29 22:30S 34°38' E 018°28'510.0
2018-May-29 21:58S 34°39' E 018°34'5 9.9
2018-May-29 21:28S 34°41' E 018°40'1010.2
2018-May-29 20:27S 34°43' E 018°52'  

Dump ship's entire track history